sensor_id;sensor_type;location;lat;lon;timestamp;P1;durP1;ratioP1;P2;durP2;ratioP2
54557;SDS011;40452;50.080;20.040;2023-02-27T04:17:35;2.13;;;0.90;;
54557;SDS011;40452;50.080;20.040;2023-02-27T04:20:21;1.67;;;0.77;;
54557;SDS011;40452;50.080;20.040;2023-02-27T04:22:57;2.50;;;1.10;;
54557;SDS011;40452;50.080;20.040;2023-02-27T04:25:40;1.83;;;0.95;;
54557;SDS011;40452;50.080;20.040;2023-02-27T04:28:24;2.10;;;0.90;;
54557;SDS011;40452;50.080;20.040;2023-02-27T04:33:50;2.17;;;1.15;;
54557;SDS011;40452;50.080;20.040;2023-02-27T04:36:41;2.05;;;1.50;;
54557;SDS011;40452;50.080;20.040;2023-02-27T04:41:53;6.40;;;2.47;;
54557;SDS011;40452;50.080;20.040;2023-02-27T04:44:24;5.65;;;3.30;;
54557;SDS011;40452;50.080;20.040;2023-02-27T04:46:51;5.55;;;3.35;;
54557;SDS011;40452;50.080;20.040;2023-02-27T04:49:24;7.68;;;4.70;;
54557;SDS011;40452;50.080;20.040;2023-02-27T04:51:54;7.68;;;4.97;;
54557;SDS011;40452;50.080;20.040;2023-02-27T04:54:25;7.40;;;4.75;;
54557;SDS011;40452;50.080;20.040;2023-02-27T04:57:15;8.25;;;5.40;;
54557;SDS011;40452;50.080;20.040;2023-02-27T05:02:27;8.95;;;5.25;;
54557;SDS011;40452;50.080;20.040;2023-02-27T05:04:58;8.68;;;5.80;;
54557;SDS011;40452;50.080;20.040;2023-02-27T05:07:28;9.60;;;5.78;;
54557;SDS011;40452;50.080;20.040;2023-02-27T05:10:12;9.20;;;6.15;;
54557;SDS011;40452;50.080;20.040;2023-02-27T05:12:53;10.82;;;6.53;;
54557;SDS011;40452;50.080;20.040;2023-02-27T05:15:27;11.10;;;6.75;;
54557;SDS011;40452;50.080;20.040;2023-02-27T05:17:58;11.25;;;7.35;;
54557;SDS011;40452;50.080;20.040;2023-02-27T05:23:41;11.88;;;7.47;;
54557;SDS011;40452;50.080;20.040;2023-02-27T05:26:18;12.02;;;7.70;;
54557;SDS011;40452;50.080;20.040;2023-02-27T05:31:44;12.38;;;7.57;;
54557;SDS011;40452;50.080;20.040;2023-02-27T05:34:36;13.43;;;7.85;;
54557;SDS011;40452;50.080;20.040;2023-02-27T05:40:21;12.15;;;7.93;;
54557;SDS011;40452;50.080;20.040;2023-02-27T05:43:35;11.10;;;7.70;;
54557;SDS011;40452;50.080;20.040;2023-02-27T05:45:39;12.05;;;7.50;;
54557;SDS011;40452;50.080;20.040;2023-02-27T05:48:16;12.35;;;7.53;;
54557;SDS011;40452;50.080;20.040;2023-02-27T05:50:47;14.30;;;8.02;;
54557;SDS011;40452;50.080;20.040;2023-02-27T05:53:16;12.10;;;8.20;;
54557;SDS011;40452;50.080;20.040;2023-02-27T05:55:45;12.45;;;7.43;;
54557;SDS011;40452;50.080;20.040;2023-02-27T06:02:48;12.48;;;8.60;;
54557;SDS011;40452;50.080;20.040;2023-02-27T06:05:15;12.82;;;8.10;;
54557;SDS011;40452;50.080;20.040;2023-02-27T06:07:42;13.45;;;8.30;;
54557;SDS011;40452;50.080;20.040;2023-02-27T06:10:09;13.55;;;8.43;;
54557;SDS011;40452;50.080;20.040;2023-02-27T06:12:38;13.88;;;8.38;;
54557;SDS011;40452;50.080;20.040;2023-02-27T06:15:03;12.55;;;8.18;;
54557;SDS011;40452;50.080;20.040;2023-02-27T06:17:29;12.68;;;8.50;;
54557;SDS011;40452;50.080;20.040;2023-02-27T06:19:55;11.30;;;7.72;;
54557;SDS011;40452;50.080;20.040;2023-02-27T06:22:20;12.57;;;7.50;;
54557;SDS011;40452;50.080;20.040;2023-02-27T06:24:45;13.15;;;7.93;;
54557;SDS011;40452;50.080;20.040;2023-02-27T06:27:11;11.63;;;7.60;;
54557;SDS011;40452;50.080;20.040;2023-02-27T06:29:36;10.18;;;6.88;;
54557;SDS011;40452;50.080;20.040;2023-02-27T06:32:02;11.90;;;7.45;;
54557;SDS011;40452;50.080;20.040;2023-02-27T06:34:27;11.30;;;7.07;;
54557;SDS011;40452;50.080;20.040;2023-02-27T06:36:53;15.88;;;5.53;;
54557;SDS011;40452;50.080;20.040;2023-02-27T06:39:18;6.88;;;4.15;;
54557;SDS011;40452;50.080;20.040;2023-02-27T06:41:44;7.15;;;3.28;;
54557;SDS011;40452;50.080;20.040;2023-02-27T06:44:09;6.72;;;3.08;;
54557;SDS011;40452;50.080;20.040;2023-02-27T06:46:35;7.28;;;3.30;;
54557;SDS011;40452;50.080;20.040;2023-02-27T06:49:00;7.90;;;3.13;;
54557;SDS011;40452;50.080;20.040;2023-02-27T06:51:26;11.32;;;3.63;;
54557;SDS011;40452;50.080;20.040;2023-02-27T06:53:51;8.00;;;3.53;;
54557;SDS011;40452;50.080;20.040;2023-02-27T06:56:17;8.43;;;3.47;;
54557;SDS011;40452;50.080;20.040;2023-02-27T06:58:42;10.02;;;4.53;;
54557;SDS011;40452;50.080;20.040;2023-02-27T07:01:08;10.68;;;4.65;;
54557;SDS011;40452;50.080;20.040;2023-02-27T07:03:34;9.15;;;4.20;;
54557;SDS011;40452;50.080;20.040;2023-02-27T07:05:59;11.63;;;4.35;;
54557;SDS011;40452;50.080;20.040;2023-02-27T07:08:26;8.65;;;4.00;;
54557;SDS011;40452;50.080;20.040;2023-02-27T07:10:51;6.80;;;4.10;;
54557;SDS011;40452;50.080;20.040;2023-02-27T07:13:17;8.02;;;3.78;;
54557;SDS011;40452;50.080;20.040;2023-02-27T07:15:43;7.35;;;3.88;;
54557;SDS011;40452;50.080;20.040;2023-02-27T07:18:09;9.60;;;4.00;;
54557;SDS011;40452;50.080;20.040;2023-02-27T07:20:35;7.70;;;3.88;;
54557;SDS011;40452;50.080;20.040;2023-02-27T07:23:01;7.10;;;4.22;;
54557;SDS011;40452;50.080;20.040;2023-02-27T07:25:26;8.10;;;3.80;;
54557;SDS011;40452;50.080;20.040;2023-02-27T07:27:54;8.98;;;3.63;;
54557;SDS011;40452;50.080;20.040;2023-02-27T07:30:20;7.47;;;3.90;;
54557;SDS011;40452;50.080;20.040;2023-02-27T07:32:46;6.80;;;3.85;;
54557;SDS011;40452;50.080;20.040;2023-02-27T07:35:11;9.15;;;3.83;;
54557;SDS011;40452;50.080;20.040;2023-02-27T07:37:37;7.60;;;3.90;;
54557;SDS011;40452;50.080;20.040;2023-02-27T14:30:53;5.72;;;2.88;;
54557;SDS011;40452;50.080;20.040;2023-02-27T18:30:36;8.50;;;5.25;;
54557;SDS011;40452;50.080;20.040;2023-02-27T18:33:02;8.95;;;5.50;;
54557;SDS011;40452;50.080;20.040;2023-02-27T18:35:28;8.70;;;5.53;;
54557;SDS011;40452;50.080;20.040;2023-02-27T18:37:53;8.13;;;5.43;;
54557;SDS011;40452;50.080;20.040;2023-02-27T18:40:19;11.10;;;5.28;;
54557;SDS011;40452;50.080;20.040;2023-02-27T18:42:51;8.88;;;5.25;;
54557;SDS011;40452;50.080;20.040;2023-02-27T18:45:17;8.93;;;4.90;;
54557;SDS011;40452;50.080;20.040;2023-02-27T18:47:46;9.70;;;5.28;;
54557;SDS011;40452;50.080;20.040;2023-02-27T18:50:12;8.35;;;5.13;;
54557;SDS011;40452;50.080;20.040;2023-02-27T18:52:38;8.40;;;5.65;;
54557;SDS011;40452;50.080;20.040;2023-02-27T18:55:06;11.68;;;6.40;;
54557;SDS011;40452;50.080;20.040;2023-02-27T18:57:32;9.75;;;5.97;;
54557;SDS011;40452;50.080;20.040;2023-02-27T18:59:57;10.50;;;6.15;;
54557;SDS011;40452;50.080;20.040;2023-02-27T19:02:23;11.30;;;6.70;;
54557;SDS011;40452;50.080;20.040;2023-02-27T19:04:49;9.20;;;5.57;;
54557;SDS011;40452;50.080;20.040;2023-02-27T19:07:14;9.90;;;5.70;;
54557;SDS011;40452;50.080;20.040;2023-02-27T19:09:46;9.77;;;6.00;;
54557;SDS011;40452;50.080;20.040;2023-02-27T19:12:11;14.70;;;6.35;;
54557;SDS011;40452;50.080;20.040;2023-02-27T19:14:37;10.13;;;6.00;;
54557;SDS011;40452;50.080;20.040;2023-02-27T19:17:03;10.23;;;5.47;;
54557;SDS011;40452;50.080;20.040;2023-02-27T19:19:29;22.30;;;6.43;;
54557;SDS011;40452;50.080;20.040;2023-02-27T19:22:20;8.48;;;5.07;;
54557;SDS011;40452;50.080;20.040;2023-02-27T19:24:48;9.05;;;4.97;;
54557;SDS011;40452;50.080;20.040;2023-02-27T19:27:13;10.70;;;4.97;;
54557;SDS011;40452;50.080;20.040;2023-02-27T19:29:41;11.15;;;4.82;;
54557;SDS011;40452;50.080;20.040;2023-02-27T19:32:06;19.83;;;5.10;;
54557;SDS011;40452;50.080;20.040;2023-02-27T19:34:32;8.30;;;4.88;;
54557;SDS011;40452;50.080;20.040;2023-02-27T19:36:57;9.18;;;4.85;;
54557;SDS011;40452;50.080;20.040;2023-02-27T19:39:23;13.13;;;7.78;;
54557;SDS011;40452;50.080;20.040;2023-02-27T19:41:49;13.73;;;5.60;;
54557;SDS011;40452;50.080;20.040;2023-02-27T19:44:23;10.05;;;6.25;;
54557;SDS011;40452;50.080;20.040;2023-02-27T19:46:50;12.02;;;6.57;;
54557;SDS011;40452;50.080;20.040;2023-02-27T19:49:16;12.68;;;6.60;;
54557;SDS011;40452;50.080;20.040;2023-02-27T19:51:42;13.25;;;6.00;;
54557;SDS011;40452;50.080;20.040;2023-02-27T19:54:11;10.15;;;6.15;;
54557;SDS011;40452;50.080;20.040;2023-02-27T19:56:38;11.67;;;5.53;;
54557;SDS011;40452;50.080;20.040;2023-02-27T19:59:04;10.63;;;6.53;;
54557;SDS011;40452;50.080;20.040;2023-02-27T20:01:30;11.23;;;6.03;;
54557;SDS011;40452;50.080;20.040;2023-02-27T20:03:59;11.07;;;5.93;;
54557;SDS011;40452;50.080;20.040;2023-02-27T20:06:29;10.85;;;5.88;;
54557;SDS011;40452;50.080;20.040;2023-02-27T20:08:58;11.88;;;5.95;;
54557;SDS011;40452;50.080;20.040;2023-02-27T20:11:27;11.10;;;6.18;;
54557;SDS011;40452;50.080;20.040;2023-02-27T20:13:55;8.52;;;5.72;;
54557;SDS011;40452;50.080;20.040;2023-02-27T20:16:21;9.80;;;5.65;;
54557;SDS011;40452;50.080;20.040;2023-02-27T20:18:48;10.48;;;6.15;;
54557;SDS011;40452;50.080;20.040;2023-02-27T20:21:17;10.77;;;5.90;;
